Time;durP1;ratioP1;P1;durP2;ratioP2;P2;SDS_P1;SDS_P2;PMS_P1;PMS_P2;Temp;Humidity;BMP_temperature;BMP_pressure;BME280_temperature;BME280_humidity;BME280_pressure;Samples;Min_cycle;Max_cycle;Signal;HPM_P1;HPM_P2
2022/05/02 00:01:23;;;;;;;1.50;1.00;;;17.30;63.60;;;;;;5276803;28;20198;-64
2022/05/02 00:04:15;;;;;;;0.97;0.77;;;17.30;63.50;;;;;;5268524;28;20188;-64
2022/05/02 00:07:09;;;;;;;1.73;1.00;;;17.30;63.50;;;;;;5268581;28;20188;-64
2022/05/02 00:10:01;;;;;;;1.27;1.10;;;17.30;63.60;;;;;;5281355;28;20328;-64
2022/05/02 00:12:53;;;;;;;2.17;0.90;;;17.30;63.50;;;;;;5281585;28;20202;-64
2022/05/02 00:15:46;;;;;;;1.33;0.90;;;17.30;63.60;;;;;;5268247;28;20191;-64
2022/05/02 00:18:38;;;;;;;0.70;0.70;;;17.30;63.60;;;;;;5267553;28;20212;-64
2022/05/02 00:21:30;;;;;;;0.87;0.87;;;17.30;63.60;;;;;;5284645;28;20199;-63
2022/05/02 00:24:23;;;;;;;1.50;0.80;;;17.30;63.60;;;;;;5287495;28;20191;-64
2022/05/02 00:27:15;;;;;;;1.47;0.93;;;17.30;63.60;;;;;;5287992;28;20199;-64
2022/05/02 00:30:09;;;;;;;0.80;0.80;;;17.30;63.70;;;;;;5287851;28;20195;-65
2022/05/02 00:33:01;;;;;;;1.10;1.00;;;17.30;63.70;;;;;;5283925;28;20279;-65
2022/05/02 00:35:53;;;;;;;1.80;1.20;;;17.30;63.60;;;;;;5267951;28;20215;-64
2022/05/02 00:38:46;;;;;;;1.50;1.00;;;17.30;63.60;;;;;;5267161;28;20345;-64
2022/05/02 00:41:40;;;;;;;1.03;0.90;;;17.30;63.60;;;;;;5267514;28;20192;-64
2022/05/02 00:44:32;;;;;;;0.90;0.80;;;17.30;63.60;;;;;;5270251;28;20302;-63
2022/05/02 00:47:24;;;;;;;0.90;0.80;;;17.30;63.60;;;;;;5287384;28;20806;-64
2022/05/02 00:50:16;;;;;;;0.90;0.80;;;17.30;63.60;;;;;;5287266;28;20272;-64
2022/05/02 00:53:12;;;;;;;1.07;0.90;;;17.30;63.70;;;;;;5266650;28;20286;-64
2022/05/02 00:56:06;;;;;;;1.00;0.90;;;17.30;63.60;;;;;;5272751;28;20569;-64
2022/05/02 00:59:01;;;;;;;1.57;0.73;;;17.30;63.70;;;;;;5277015;28;20219;-64
2022/05/02 01:01:53;;;;;;;0.93;0.93;;;17.30;63.70;;;;;;5266619;28;20194;-64
2022/05/02 01:04:45;;;;;;;1.00;1.00;;;17.30;63.70;;;;;;5269772;28;20188;-64
2022/05/02 01:07:37;;;;;;;1.00;0.90;;;17.30;63.70;;;;;;5280124;28;20195;-64
2022/05/02 01:10:30;;;;;;;0.83;0.80;;;17.30;63.60;;;;;;5267343;28;20212;-65
2022/05/02 01:13:33;;;;;;;1.33;0.80;;;17.30;63.60;;;;;;5287592;28;20628;-65
2022/05/02 01:16:28;;;;;;;0.80;0.80;;;17.30;63.60;;;;;;5287184;28;20186;-64
2022/05/02 01:19:20;;;;;;;1.57;0.90;;;17.30;63.70;;;;;;5285701;28;20616;-64
2022/05/02 01:22:14;;;;;;;0.70;0.70;;;17.30;63.70;;;;;;5287008;28;20187;-64
2022/05/02 01:25:07;;;;;;;0.80;0.80;;;17.30;63.60;;;;;;5287599;28;20203;-64
2022/05/02 01:27:59;;;;;;;0.97;0.90;;;17.30;63.70;;;;;;5284297;28;20219;-64
2022/05/02 01:30:51;;;;;;;1.10;1.00;;;17.30;63.70;;;;;;5287313;28;20215;-64
2022/05/02 01:33:43;;;;;;;1.10;1.00;;;17.30;63.70;;;;;;5287052;28;20200;-64
2022/05/02 01:36:35;;;;;;;1.50;0.83;;;17.30;63.70;;;;;;5287309;28;20198;-64
2022/05/02 01:39:29;;;;;;;0.80;0.80;;;17.30;63.80;;;;;;5265612;28;20698;-64
2022/05/02 01:42:21;;;;;;;1.10;1.00;;;17.30;63.80;;;;;;5266070;28;20259;-64
2022/05/02 01:45:13;;;;;;;0.80;0.80;;;17.30;63.70;;;;;;5266880;28;20198;-64
2022/05/02 01:48:07;;;;;;;1.27;1.03;;;17.30;63.70;;;;;;5266259;28;20214;-64
2022/05/02 01:50:59;;;;;;;1.10;1.00;;;17.30;63.70;;;;;;5265459;28;20211;-66
2022/05/02 01:53:51;;;;;;;1.63;0.87;;;17.30;63.70;;;;;;5271351;28;20274;-65
2022/05/02 01:56:45;;;;;;;0.97;0.83;;;17.30;63.70;;;;;;5284171;28;20577;-66
2022/05/02 01:59:37;;;;;;;1.03;0.93;;;17.30;63.70;;;;;;5281261;28;20219;-64
2022/05/02 02:02:29;;;;;;;0.83;0.70;;;17.30;63.70;;;;;;5286438;28;20654;-64
2022/05/02 02:08:33;;;;;;;1.13;0.90;;;17.30;63.70;;;;;;5287499;28;20705;-62
2022/05/02 02:11:25;;;;;;;1.07;0.97;;;17.30;63.70;;;;;;5286370;28;20219;-64
2022/05/02 02:14:18;;;;;;;1.17;0.97;;;17.30;63.70;;;;;;5286674;28;20195;-64
2022/05/02 02:17:10;;;;;;;0.90;0.80;;;17.30;63.70;;;;;;5286169;28;20202;-64
2022/05/02 02:20:02;;;;;;;0.80;0.80;;;17.30;63.70;;;;;;5286310;28;20662;-64
2022/05/02 02:22:56;;;;;;;1.00;0.90;;;17.30;64.30;;;;;;5286234;28;20519;-64
2022/05/02 02:25:48;;;;;;;1.10;1.00;;;17.30;63.70;;;;;;5286428;28;20662;-64
2022/05/02 02:28:40;;;;;;;0.83;0.80;;;17.30;63.70;;;;;;5285499;28;20615;-64
2022/05/02 02:31:34;;;;;;;0.93;0.93;;;17.30;63.70;;;;;;5286370;28;20576;-63
2022/05/02 02:34:26;;;;;;;0.93;0.93;;;17.30;63.70;;;;;;5287142;28;20208;-64
2022/05/02 02:37:18;;;;;;;0.90;0.90;;;17.30;63.70;;;;;;5280438;28;20196;-66
2022/05/02 02:40:11;;;;;;;0.80;0.80;;;17.30;63.60;;;;;;5287041;28;20191;-64
2022/05/02 02:43:03;;;;;;;0.93;0.87;;;17.30;63.70;;;;;;5271478;28;20202;-64
2022/05/02 02:45:55;;;;;;;1.00;0.87;;;17.30;63.70;;;;;;5269645;28;20195;-64
2022/05/02 02:48:49;;;;;;;1.00;0.80;;;17.30;63.70;;;;;;5268434;28;20224;-64
2022/05/02 02:51:41;;;;;;;1.60;1.23;;;17.30;63.70;;;;;;5280365;28;20223;-66
2022/05/02 02:54:33;;;;;;;0.90;0.90;;;17.30;63.70;;;;;;5290555;28;20321;-64
2022/05/02 02:57:25;;;;;;;1.27;1.00;;;17.20;63.70;;;;;;5289362;28;20585;-64
2022/05/02 03:00:18;;;;;;;0.90;0.90;;;17.30;63.70;;;;;;5287309;28;20199;-63
2022/05/02 03:03:10;;;;;;;1.10;1.00;;;17.30;64.30;;;;;;5289434;28;20192;-64
2022/05/02 03:06:03;;;;;;;1.13;1.03;;;17.30;63.70;;;;;;5288759;28;20573;-64
2022/05/02 03:08:55;;;;;;;1.70;1.00;;;17.30;63.70;;;;;;5289961;28;20229;-64
2022/05/02 03:11:48;;;;;;;2.03;1.07;;;17.30;63.70;;;;;;5289203;28;20215;-66
2022/05/02 03:14:40;;;;;;;1.13;1.00;;;17.30;63.70;;;;;;5268459;28;20195;-64
2022/05/02 03:17:32;;;;;;;1.83;0.90;;;17.30;63.70;;;;;;5268285;28;20192;-62
2022/05/02 03:20:24;;;;;;;1.47;1.20;;;17.30;63.60;;;;;;5282127;28;20195;-64
2022/05/02 03:23:17;;;;;;;0.90;0.90;;;17.30;63.70;;;;;;5289109;28;20385;-64
2022/05/02 03:26:09;;;;;;;0.83;0.83;;;17.30;63.70;;;;;;5277776;28;20566;-64
2022/05/02 03:29:02;;;;;;;0.97;0.90;;;17.30;63.60;;;;;;5269483;28;20594;-65
2022/05/02 03:31:54;;;;;;;0.77;0.77;;;17.20;63.60;;;;;;5267732;28;20231;-65
2022/05/02 03:34:46;;;;;;;0.87;0.70;;;17.30;63.60;;;;;;5284579;28;20187;-64
2022/05/02 03:37:38;;;;;;;0.80;0.80;;;17.30;63.70;;;;;;5267769;28;20196;-64
2022/05/02 03:40:31;;;;;;;1.07;0.90;;;17.30;63.50;;;;;;5268279;28;20196;-64
2022/05/02 03:43:23;;;;;;;1.20;1.10;;;17.30;63.50;;;;;;5267708;28;20199;-64
2022/05/02 03:46:16;;;;;;;1.47;0.80;;;17.30;63.40;;;;;;5267743;28;20246;-65
2022/05/02 03:49:08;;;;;;;0.83;0.80;;;17.30;63.40;;;;;;5268648;28;20586;-64
2022/05/02 03:52:00;;;;;;;1.33;1.00;;;17.30;63.40;;;;;;5267315;28;20221;-65
2022/05/02 03:54:52;;;;;;;1.13;0.90;;;17.30;63.30;;;;;;5279660;28;20195;-64
2022/05/02 03:57:45;;;;;;;1.00;1.00;;;17.40;63.30;;;;;;5287937;28;20213;-65
2022/05/02 04:00:37;;;;;;;1.00;0.90;;;17.40;63.30;;;;;;5280754;28;20679;-63
2022/05/02 04:03:29;;;;;;;1.00;0.90;;;17.30;63.30;;;;;;5267063;28;20238;-64
2022/05/02 04:06:21;;;;;;;1.17;0.90;;;17.30;63.30;;;;;;5267332;28;20196;-64
2022/05/02 04:09:14;;;;;;;0.90;0.90;;;17.40;63.40;;;;;;5268914;28;20710;-64
2022/05/02 04:12:06;;;;;;;1.20;1.10;;;17.30;63.40;;;;;;5267513;28;20215;-65
2022/05/02 04:15:00;;;;;;;1.97;1.10;;;17.40;63.30;;;;;;5266963;28;20274;-64
2022/05/02 04:17:52;;;;;;;1.20;1.10;;;17.30;63.30;;;;;;5267633;28;20218;-65
2022/05/02 04:20:45;;;;;;;0.80;0.80;;;17.40;63.20;;;;;;5266274;28;20202;-64
2022/05/02 04:23:37;;;;;;;1.00;0.90;;;17.40;63.30;;;;;;5273377;28;20672;-64
2022/05/02 04:26:29;;;;;;;1.53;1.10;;;17.40;63.30;;;;;;5288711;28;20572;-64
2022/05/02 04:29:21;;;;;;;0.97;0.97;;;17.30;63.30;;;;;;5287988;28;20215;-64
2022/05/02 04:32:15;;;;;;;1.00;1.00;;;17.40;63.30;;;;;;5287865;28;20215;-64
2022/05/02 04:35:10;;;;;;;1.10;1.00;;;17.40;63.30;;;;;;5287016;28;20191;-64
2022/05/02 04:38:02;;;;;;;1.90;1.20;;;17.40;63.40;;;;;;5276405;28;20368;-64
2022/05/02 04:40:54;;;;;;;1.17;1.03;;;17.40;63.40;;;;;;5271643;28;20198;-64
2022/05/02 04:43:51;;;;;;;1.10;1.00;;;17.40;63.30;;;;;;5277789;28;20188;-64
2022/05/02 04:46:43;;;;;;;1.30;1.20;;;17.40;63.30;;;;;;5266641;28;20188;-64
2022/05/02 04:49:36;;;;;;;2.30;1.10;;;17.30;63.20;;;;;;5265064;28;20219;-66
2022/05/02 04:52:28;;;;;;;1.10;1.00;;;17.40;63.30;;;;;;5273378;28;20219;-66
2022/05/02 04:55:21;;;;;;;1.20;1.10;;;17.40;63.50;;;;;;5282538;28;20661;-66
2022/05/02 04:58:13;;;;;;;1.23;1.13;;;17.40;63.40;;;;;;5265381;28;20212;-67
2022/05/02 05:01:06;;;;;;;1.37;1.17;;;17.40;63.40;;;;;;5276413;28;20276;-65
2022/05/02 05:03:58;;;;;;;1.20;1.00;;;17.40;63.40;;;;;;5272172;28;20191;-64
2022/05/02 05:06:52;;;;;;;1.63;1.07;;;17.40;63.40;;;;;;5275711;28;20204;-64
2022/05/02 05:09:44;;;;;;;1.00;0.90;;;17.40;63.40;;;;;;5270576;28;20461;-64
2022/05/02 05:12:54;;;;;;;1.43;1.07;;;17.40;63.50;;;;;;5286805;28;20219;-65
2022/05/02 05:16:21;;;;;;;1.10;1.00;;;17.40;63.40;;;;;;5286103;28;20562;-64
2022/05/02 05:19:36;;;;;;;1.20;1.10;;;17.40;63.50;;;;;;5266820;28;20208;-64
2022/05/02 05:22:49;;;;;;;1.10;0.90;;;17.40;64.00;;;;;;5286106;28;20199;-64
2022/05/02 05:25:50;;;;;;;1.13;1.00;;;17.40;63.50;;;;;;5270645;28;20195;-65
2022/05/02 05:28:57;;;;;;;1.30;1.20;;;17.40;63.50;;;;;;5265327;28;20218;-64
2022/05/02 05:32:09;;;;;;;0.90;0.90;;;17.40;63.50;;;;;;5273910;28;20204;-65
2022/05/02 05:35:05;;;;;;;2.07;1.20;;;17.50;63.50;;;;;;5277130;28;20280;-64
2022/05/02 05:38:03;;;;;;;1.20;0.90;;;17.50;63.60;;;;;;5266494;28;20211;-64
2022/05/02 05:41:13;;;;;;;1.60;0.97;;;17.50;63.60;;;;;;5265175;28;20191;-64
2022/05/02 05:44:15;;;;;;;1.23;1.10;;;17.50;63.50;;;;;;5266716;28;20183;-64
2022/05/02 05:47:32;;;;;;;1.07;0.97;;;17.50;63.50;;;;;;5266574;28;20192;-64
2022/05/02 05:50:30;;;;;;;1.73;1.07;;;17.50;63.50;;;;;;5278574;28;20874;-64
2022/05/02 05:53:33;;;;;;;2.33;1.20;;;17.50;63.50;;;;;;5275275;28;20586;-64
2022/05/02 05:56:40;;;;;;;1.27;0.97;;;17.50;63.50;;;;;;5273369;28;20187;-64
2022/05/02 05:59:45;;;;;;;1.30;1.20;;;17.50;63.50;;;;;;5277048;28;20238;-64
2022/05/02 06:03:02;;;;;;;1.27;1.03;;;17.50;63.60;;;;;;5276009;28;20217;-64
2022/05/02 06:05:55;;;;;;;1.00;0.90;;;17.50;64.10;;;;;;5278192;28;20669;-69
2022/05/02 06:08:51;;;;;;;1.47;1.30;;;17.50;63.50;;;;;;5286806;28;20246;-62
2022/05/02 06:11:46;;;;;;;1.60;1.00;;;17.50;63.20;;;;;;5286482;28;20206;-63
2022/05/02 06:18:27;;;;;;;1.50;1.10;;;17.50;63.10;;;;;;5270201;28;20200;-62
2022/05/02 06:21:08;;;;;;;1.53;0.93;;;17.50;63.10;;;;;;5283682;28;20198;-62
2022/05/02 06:24:04;;;;;;;1.83;1.20;;;17.50;63.00;;;;;;5289603;28;20187;-62
2022/05/02 06:26:58;;;;;;;1.43;1.17;;;17.40;63.00;;;;;;5270077;28;20265;-62
2022/05/02 06:29:52;;;;;;;0.97;0.97;;;17.40;62.90;;;;;;5270150;28;20226;-64
2022/05/02 06:32:46;;;;;;;1.07;0.97;;;17.40;63.20;;;;;;5271088;28;20703;-62
2022/05/02 06:35:49;;;;;;;2.07;0.90;;;17.50;63.20;;;;;;5272609;28;20195;-62
2022/05/02 06:38:51;;;;;;;1.33;1.00;;;17.40;62.80;;;;;;5289206;28;20682;-62
2022/05/02 06:41:58;;;;;;;1.57;1.20;;;17.40;62.80;;;;;;5290022;28;20580;-62
2022/05/02 06:45:07;;;;;;;2.07;1.10;;;17.40;62.90;;;;;;5290097;28;20191;-63
2022/05/02 06:48:34;;;;;;;1.30;1.10;;;17.40;62.90;;;;;;5289625;28;20207;-62
2022/05/02 06:51:31;;;;;;;1.43;1.03;;;17.40;63.10;;;;;;5287222;28;20576;-62
2022/05/02 06:54:38;;;;;;;1.93;1.00;;;17.40;63.20;;;;;;5290083;28;20226;-63
2022/05/02 06:57:43;;;;;;;2.30;1.13;;;17.40;63.20;;;;;;5289755;28;20270;-62
2022/05/02 07:00:43;;;;;;;1.40;1.17;;;17.30;63.10;;;;;;5290750;28;20191;-62
2022/05/02 07:04:15;;;;;;;1.00;1.00;;;17.40;63.30;;;;;;5289594;28;20270;-62
2022/05/02 07:07:19;;;;;;;1.70;1.13;;;17.40;63.40;;;;;;5286626;28;20585;-62
2022/05/02 07:10:14;;;;;;;1.73;0.97;;;17.30;63.40;;;;;;5289102;28;20191;-63
2022/05/02 07:13:20;;;;;;;2.33;1.10;;;17.30;63.40;;;;;;5289074;28;20697;-64
2022/05/02 07:16:21;;;;;;;1.03;0.93;;;17.30;63.40;;;;;;5270805;28;20188;-62
2022/05/02 07:19:27;;;;;;;1.10;1.00;;;17.30;63.50;;;;;;5268297;28;20222;-64
2022/05/02 07:22:30;;;;;;;1.10;1.00;;;17.30;63.70;;;;;;5267038;28;20199;-64
2022/05/02 07:25:25;;;;;;;3.43;1.00;;;17.30;63.80;;;;;;5282245;28;20199;-64
2022/05/02 07:28:31;;;;;;;1.80;1.13;;;17.40;63.80;;;;;;5289878;28;20221;-64
2022/05/02 07:31:25;;;;;;;1.40;0.83;;;17.40;63.80;;;;;;5289069;28;20237;-64
2022/05/02 07:34:18;;;;;;;0.83;0.80;;;17.40;63.80;;;;;;5289387;28;20219;-64
2022/05/02 07:37:15;;;;;;;1.60;0.80;;;17.40;63.80;;;;;;5290170;28;20859;-64
2022/05/02 07:40:07;;;;;;;1.43;0.80;;;17.40;63.80;;;;;;5288735;28;20201;-64
2022/05/02 07:43:01;;;;;;;1.30;1.17;;;17.40;63.80;;;;;;5288827;28;20273;-64
2022/05/02 07:45:55;;;;;;;1.07;0.80;;;17.40;63.80;;;;;;5288988;28;20669;-65
2022/05/02 07:48:50;;;;;;;1.27;0.70;;;17.50;63.80;;;;;;5287760;28;20208;-64
2022/05/02 07:51:46;;;;;;;1.93;1.07;;;17.50;63.80;;;;;;5275559;28;20571;-65
2022/05/02 07:54:41;;;;;;;2.07;0.90;;;17.40;63.70;;;;;;5269528;28;20199;-64
2022/05/02 07:57:37;;;;;;;1.00;0.90;;;17.40;63.70;;;;;;5287781;28;20241;-64
2022/05/02 08:00:29;;;;;;;0.87;0.87;;;17.40;63.70;;;;;;5288651;28;20248;-64
2022/05/02 08:03:24;;;;;;;1.43;1.10;;;17.50;63.80;;;;;;5283641;28;20209;-64
2022/05/02 08:06:33;;;;;;;0.93;0.83;;;17.50;63.80;;;;;;5266735;28;20234;-64
2022/05/02 08:09:41;;;;;;;0.80;0.80;;;17.50;63.80;;;;;;5267671;28;20219;-64
2022/05/02 08:12:39;;;;;;;1.00;0.90;;;17.50;63.80;;;;;;5267453;28;20207;-64
2022/05/02 08:15:46;;;;;;;1.30;0.90;;;17.50;63.80;;;;;;5267614;28;20569;-64
2022/05/02 08:19:05;;;;;;;2.27;0.90;;;17.50;63.80;;;;;;5275788;28;20215;-63
2022/05/02 08:28:39;;;;;;;2.13;0.90;;;17.50;63.80;;;;;;5288081;28;20419;-64
2022/05/02 08:31:42;;;;;;;0.87;0.87;;;17.50;64.50;;;;;;5266589;28;20554;-64
2022/05/02 08:34:42;;;;;;;1.33;0.90;;;17.50;63.80;;;;;;5286573;28;20194;-64
2022/05/02 08:37:54;;;;;;;0.90;0.73;;;17.50;63.90;;;;;;5288270;28;20683;-64
2022/05/02 08:41:23;;;;;;;1.10;1.00;;;17.50;63.80;;;;;;5269877;28;20690;-64
2022/05/02 08:45:06;;;;;;;0.93;0.90;;;17.50;63.80;;;;;;5287876;28;20191;-64
2022/05/02 08:48:28;;;;;;;1.33;0.90;;;17.50;63.90;;;;;;5178633;28;20325;-64
2022/05/02 08:51:43;;;;;;;1.10;0.90;;;17.50;63.90;;;;;;5179108;28;20264;-64
2022/05/02 08:55:00;;;;;;;1.40;1.00;;;17.40;63.80;;;;;;5267003;28;20212;-64
2022/05/02 08:58:52;;;;;;;1.03;0.80;;;17.50;63.90;;;;;;5266064;28;20230;-64
2022/05/02 09:02:20;;;;;;;0.90;0.90;;;17.50;63.90;;;;;;5267337;28;20210;-64
2022/05/02 09:06:03;;;;;;;1.13;0.80;;;17.50;64.00;;;;;;5287068;28;20268;-61
2022/05/02 09:09:30;;;;;;;1.10;1.00;;;17.50;63.70;;;;;;5278647;28;20823;-65
2022/05/02 09:12:58;;;;;;;2.03;1.80;;;17.50;63.20;;;;;;5265691;28;20192;-65
2022/05/02 09:16:44;;;;;;;5.70;1.80;;;17.50;60.10;;;;;;5277284;28;20682;-67
2022/05/02 09:20:17;;;;;;;2.80;1.50;;;17.40;57.60;;;;;;5273442;28;20235;-67
2022/05/02 09:23:57;;;;;;;2.87;1.63;;;17.40;57.60;;;;;;5240239;28;20562;-65
2022/05/02 09:27:12;;;;;;;1.50;1.37;;;17.40;58.10;;;;;;5287713;28;20670;-66
2022/05/02 09:30:42;;;;;;;1.47;1.00;;;17.40;58.70;;;;;;5287450;28;20202;-65
2022/05/02 09:33:42;;;;;;;2.73;1.20;;;17.40;59.60;;;;;;5284194;28;20210;-66
2022/05/02 09:36:43;;;;;;;3.70;1.37;;;17.40;60.00;;;;;;5287352;28;20661;-66
2022/05/02 09:39:45;;;;;;;1.53;1.40;;;17.40;60.20;;;;;;5287644;28;20207;-69
2022/05/02 09:42:51;;;;;;;1.73;1.43;;;17.40;60.60;;;;;;5286910;28;20190;-66
2022/05/02 09:53:03;;;;;;;2.63;1.37;;;17.40;60.60;;;;;;5204913;28;20623;-66
2022/05/02 09:59:10;;;;;;;2.63;1.43;;;17.40;61.10;;;;;;5278611;28;20203;-66
2022/05/02 10:02:06;;;;;;;4.20;1.50;;;17.40;61.20;;;;;;5290561;28;20675;-65
2022/05/02 10:05:06;;;;;;;1.07;0.97;;;17.50;61.40;;;;;;5290135;28;20194;-65
2022/05/02 10:08:05;;;;;;;2.33;1.30;;;17.40;61.20;;;;;;5292259;28;20206;-71
2022/05/02 10:11:01;;;;;;;0.93;0.83;;;17.50;61.10;;;;;;5282203;28;20194;-65
2022/05/02 10:14:14;;;;;;;1.73;1.20;;;17.50;61.30;;;;;;5289881;28;20562;-65
2022/05/02 10:17:11;;;;;;;1.80;0.90;;;17.50;61.40;;;;;;5272582;28;20192;-65
2022/05/02 10:20:12;;;;;;;1.73;1.10;;;17.50;61.20;;;;;;5269946;28;20187;-66
2022/05/02 10:23:18;;;;;;;2.60;1.30;;;17.50;61.30;;;;;;5272934;28;20187;-65
2022/05/02 10:26:26;;;;;;;2.10;1.20;;;17.50;61.40;;;;;;5282158;28;20191;-65
2022/05/02 10:29:57;;;;;;;2.97;1.10;;;17.50;61.40;;;;;;5271384;28;20219;-67
2022/05/02 10:32:56;;;;;;;1.77;1.20;;;17.50;61.40;;;;;;5274201;28;20278;-67
2022/05/02 10:35:52;;;;;;;1.83;1.10;;;17.50;61.40;;;;;;5269682;28;20188;-66
2022/05/02 10:38:51;;;;;;;1.70;1.10;;;17.50;61.50;;;;;;5269670;28;20214;-65
2022/05/02 10:41:49;;;;;;;1.87;1.00;;;17.50;61.60;;;;;;5268637;28;20195;-65
2022/05/02 10:44:52;;;;;;;1.57;1.20;;;17.50;61.40;;;;;;5268842;28;20188;-64
2022/05/02 10:47:48;;;;;;;2.07;0.83;;;17.50;61.50;;;;;;5269028;28;20590;-66
2022/05/02 10:50:41;;;;;;;1.70;1.33;;;17.50;61.50;;;;;;5272784;28;20208;-65
2022/05/02 10:53:58;;;;;;;1.73;1.20;;;17.50;61.40;;;;;;5289533;28;20207;-65
2022/05/02 10:56:57;;;;;;;1.30;1.10;;;17.40;61.40;;;;;;5290214;28;20198;-65
2022/05/02 10:59:53;;;;;;;2.10;1.23;;;17.50;61.40;;;;;;5289503;28;20215;-65
2022/05/02 11:03:06;;;;;;;4.40;1.30;;;17.40;61.30;;;;;;5289981;28;20195;-65
2022/05/02 11:06:10;;;;;;;2.07;1.33;;;17.40;61.20;;;;;;5284905;28;20190;-65
2022/05/02 11:09:06;;;;;;;2.70;1.17;;;17.40;61.20;;;;;;5269886;28;20226;-65
2022/05/02 11:12:02;;;;;;;1.70;1.47;;;17.40;61.10;;;;;;5269075;28;20188;-65
2022/05/02 11:15:00;;;;;;;3.40;1.50;;;17.40;61.00;;;;;;5269416;28;20227;-65
2022/05/02 11:17:59;;;;;;;1.83;1.20;;;17.40;61.10;;;;;;5269942;28;20593;-65
2022/05/02 11:20:54;;;;;;;1.50;1.37;;;17.40;61.00;;;;;;5279596;28;20551;-65
2022/05/02 11:24:12;;;;;;;1.20;1.10;;;17.40;61.00;;;;;;5280191;28;20184;-64
2022/05/02 11:27:15;;;;;;;1.53;1.27;;;17.40;61.30;;;;;;5267458;28;20202;-64
2022/05/02 11:30:09;;;;;;;3.77;1.37;;;17.40;61.50;;;;;;5277009;28;20195;-63
2022/05/02 11:33:13;;;;;;;5.20;1.40;;;17.40;61.10;;;;;;5269113;28;20204;-64
2022/05/02 11:36:10;;;;;;;2.87;1.30;;;17.40;61.00;;;;;;5268034;28;20192;-64
2022/05/02 11:39:06;;;;;;;1.80;1.30;;;17.40;61.00;;;;;;5267469;28;20732;-64
2022/05/02 11:42:08;;;;;;;2.00;1.47;;;17.40;61.20;;;;;;5267503;28;20188;-64
2022/05/02 11:45:10;;;;;;;6.17;1.30;;;17.40;61.20;;;;;;5268511;28;20190;-64
2022/05/02 11:48:35;;;;;;;1.93;1.40;;;17.30;61.30;;;;;;5269822;28;20720;-64
2022/05/02 11:51:37;;;;;;;4.40;1.50;;;17.30;61.20;;;;;;5279104;28;20736;-66
2022/05/02 11:54:35;;;;;;;3.47;1.53;;;17.40;61.50;;;;;;5267986;28;20211;-67
2022/05/02 11:57:37;;;;;;;1.90;1.20;;;17.40;61.70;;;;;;5268314;28;20187;-66
2022/05/02 12:00:33;;;;;;;1.93;1.07;;;17.40;61.80;;;;;;5269039;28;20240;-66
2022/05/02 12:03:26;;;;;;;4.03;1.37;;;17.40;61.90;;;;;;5268793;28;20232;-67
2022/05/02 12:06:29;;;;;;;2.50;1.40;;;17.40;62.00;;;;;;5269909;28;20190;-67
2022/05/02 12:09:23;;;;;;;1.53;1.43;;;17.40;61.90;;;;;;5274861;28;20213;-67
2022/05/02 12:12:17;;;;;;;1.60;0.90;;;17.40;62.00;;;;;;5287381;28;20585;-67
2022/05/02 12:15:12;;;;;;;1.43;1.17;;;17.40;62.00;;;;;;5276500;28;20284;-67
2022/05/02 12:18:06;;;;;;;2.10;1.20;;;17.40;62.00;;;;;;5288175;28;20233;-67
2022/05/02 12:21:03;;;;;;;1.83;1.10;;;17.40;62.00;;;;;;5290316;28;20200;-65
2022/05/02 12:23:56;;;;;;;2.60;1.40;;;17.50;62.00;;;;;;5271885;28;20192;-65
2022/05/02 12:26:51;;;;;;;1.30;1.20;;;17.50;62.00;;;;;;5267540;28;20199;-66
2022/05/02 12:29:56;;;;;;;1.43;1.27;;;17.50;62.10;;;;;;5267874;28;20305;-64
2022/05/02 12:32:51;;;;;;;1.70;1.33;;;17.50;62.10;;;;;;5269646;28;20248;-65
2022/05/02 12:35:44;;;;;;;1.40;1.20;;;17.50;62.10;;;;;;5276772;28;20210;-65
2022/05/02 12:38:38;;;;;;;2.73;1.40;;;17.50;62.20;;;;;;5267184;28;20264;-65
2022/05/02 12:41:39;;;;;;;1.80;1.30;;;17.50;62.20;;;;;;5266258;28;20192;-65
2022/05/02 12:44:46;;;;;;;1.30;1.20;;;17.50;62.20;;;;;;5266967;28;20187;-65
2022/05/02 12:47:48;;;;;;;1.87;1.30;;;17.50;62.20;;;;;;5266079;28;20207;-65
2022/05/02 12:50:46;;;;;;;1.43;1.30;;;17.50;62.20;;;;;;5270803;28;20195;-63
2022/05/02 13:03:18;;;;;;;1.70;1.30;;;17.50;62.40;;;;;;5269068;28;20195;-66
2022/05/02 13:06:11;;;;;;;1.33;1.23;;;17.50;62.40;;;;;;5266123;28;20224;-66
2022/05/02 13:09:12;;;;;;;1.50;1.00;;;17.50;62.30;;;;;;5285802;28;20230;-66
2022/05/02 13:12:09;;;;;;;1.77;1.33;;;17.50;62.30;;;;;;5268397;28;20677;-65
2022/05/02 13:15:04;;;;;;;1.40;1.27;;;17.50;62.30;;;;;;5277573;28;20291;-65
2022/05/02 13:18:01;;;;;;;1.40;1.30;;;17.50;62.30;;;;;;5267967;28;20222;-66
2022/05/02 13:21:01;;;;;;;2.53;1.10;;;17.50;62.20;;;;;;5266544;28;20199;-65
2022/05/02 13:23:57;;;;;;;1.70;1.10;;;17.50;62.20;;;;;;5266877;28;20196;-65
2022/05/02 13:27:13;;;;;;;2.13;1.30;;;17.50;62.20;;;;;;5265902;28;20331;-65
2022/05/02 13:30:08;;;;;;;3.07;1.23;;;17.50;62.20;;;;;;5266408;28;20188;-66
2022/05/02 13:33:06;;;;;;;2.30;1.53;;;17.50;62.20;;;;;;5266408;28;20217;-66
2022/05/02 13:36:05;;;;;;;1.57;1.33;;;17.50;62.20;;;;;;5266407;28;20267;-65
2022/05/02 13:39:04;;;;;;;2.03;1.17;;;17.50;61.70;;;;;;5281533;28;20279;-66
2022/05/02 13:42:03;;;;;;;1.87;1.17;;;17.50;61.90;;;;;;5265698;28;20191;-66
2022/05/02 13:44:58;;;;;;;1.33;1.23;;;17.50;62.00;;;;;;5265334;28;20192;-66
2022/05/02 13:47:57;;;;;;;1.57;1.30;;;17.50;62.00;;;;;;5265741;28;20216;-66
2022/05/02 13:50:57;;;;;;;1.97;1.30;;;17.60;62.10;;;;;;5270008;28;20195;-66
2022/05/02 13:53:57;;;;;;;1.90;1.40;;;17.50;62.00;;;;;;5287219;28;20290;-66
2022/05/02 13:57:02;;;;;;;3.37;1.30;;;17.50;62.00;;;;;;5287088;28;20187;-65
2022/05/02 14:00:23;;;;;;;1.57;1.40;;;17.50;62.00;;;;;;5278694;28;20218;-65
2022/05/02 14:03:40;;;;;;;1.60;1.50;;;17.60;62.10;;;;;;5266686;28;20200;-65
2022/05/02 14:06:47;;;;;;;1.70;1.30;;;17.50;62.00;;;;;;5266155;28;20328;-65
2022/05/02 14:09:48;;;;;;;1.30;1.20;;;17.50;61.90;;;;;;5265951;28;20223;-65
2022/05/02 14:12:41;;;;;;;1.90;1.20;;;17.50;61.90;;;;;;5275507;28;20198;-65
2022/05/02 14:15:33;;;;;;;2.07;1.40;;;17.50;61.90;;;;;;5287373;28;20207;-66
2022/05/02 14:18:32;;;;;;;1.30;1.20;;;17.50;61.90;;;;;;5287455;28;20222;-66
2022/05/02 14:21:25;;;;;;;1.90;1.47;;;17.50;62.50;;;;;;5284958;28;20184;-65
2022/05/02 14:24:18;;;;;;;1.50;1.40;;;17.60;62.00;;;;;;5285950;28;20195;-66
2022/05/02 14:27:11;;;;;;;2.17;1.50;;;17.50;62.00;;;;;;5286570;28;20198;-67
2022/05/02 14:30:05;;;;;;;2.53;1.27;;;17.60;62.00;;;;;;5288014;28;20268;-66
2022/05/02 14:32:58;;;;;;;2.67;1.57;;;17.60;62.00;;;;;;5290724;28;20692;-66
2022/05/02 14:35:51;;;;;;;3.10;1.40;;;17.60;62.00;;;;;;5289958;28;20207;-65
2022/05/02 14:38:45;;;;;;;1.47;1.23;;;17.50;61.80;;;;;;5279071;28;20222;-66
2022/05/02 14:41:40;;;;;;;2.20;1.43;;;17.60;61.90;;;;;;5273720;28;20187;-66
2022/05/02 14:44:33;;;;;;;2.50;1.50;;;17.50;61.80;;;;;;5271947;28;20180;-66
2022/05/02 14:47:25;;;;;;;1.40;1.30;;;17.60;61.80;;;;;;5269037;28;20196;-65
2022/05/02 14:50:19;;;;;;;1.50;1.40;;;17.50;61.70;;;;;;5268846;28;20200;-66
2022/05/02 14:53:14;;;;;;;1.40;1.30;;;17.60;61.70;;;;;;5290174;28;20206;-65
2022/05/02 14:56:11;;;;;;;1.57;1.47;;;17.50;61.60;;;;;;5284359;28;20219;-66
2022/05/02 14:59:03;;;;;;;1.60;1.23;;;17.60;61.70;;;;;;5273250;28;20250;-66
2022/05/02 15:01:56;;;;;;;2.50;1.53;;;17.60;61.60;;;;;;5273154;28;20191;-65
2022/05/02 15:04:51;;;;;;;1.98;1.77;;;17.50;61.60;;;;;;5289271;28;20422;-63
2022/05/02 15:07:55;;;;;;;3.53;1.83;;;17.60;61.00;;;;;;5288618;28;20228;-65
2022/05/02 15:10:56;;;;;;;1.60;1.50;;;17.60;60.80;;;;;;5271828;28;20597;-65
2022/05/02 15:14:25;;;;;;;2.33;1.60;;;17.60;61.30;;;;;;5266979;28;20682;-65
2022/05/02 15:17:24;;;;;;;2.33;1.80;;;17.60;61.40;;;;;;5273397;28;20194;-65
2022/05/02 15:20:22;;;;;;;2.23;1.60;;;17.60;61.50;;;;;;5268838;28;20242;-65
2022/05/02 15:23:15;;;;;;;5.03;1.53;;;17.60;61.50;;;;;;5269570;28;20582;-65
2022/05/02 15:26:09;;;;;;;1.50;1.40;;;17.60;61.60;;;;;;5270257;28;20590;-65
2022/05/02 15:38:59;;;;;;;3.43;1.57;;;17.60;61.50;;;;;;5284527;28;20203;-65
2022/05/02 15:41:58;;;;;;;1.97;1.40;;;17.60;61.60;;;;;;5287014;28;20197;-65
2022/05/02 15:44:51;;;;;;;1.73;1.63;;;17.50;61.50;;;;;;5282987;28;20232;-65
2022/05/02 15:47:43;;;;;;;1.80;1.70;;;17.60;61.60;;;;;;5278388;28;20191;-64
2022/05/02 15:50:36;;;;;;;4.43;1.60;;;17.50;61.50;;;;;;5281623;28;20263;-66
2022/05/02 15:53:31;;;;;;;2.23;1.73;;;17.60;61.50;;;;;;5265450;28;20192;-66
2022/05/02 15:56:23;;;;;;;2.30;1.40;;;17.60;61.50;;;;;;5266589;28;20222;-65
2022/05/02 15:59:29;;;;;;;2.67;1.70;;;17.60;61.60;;;;;;5265511;28;20222;-65
2022/05/02 16:02:24;;;;;;;1.77;1.40;;;17.60;61.60;;;;;;5283836;28;20576;-65
2022/05/02 16:05:18;;;;;;;1.67;1.57;;;17.60;61.60;;;;;;5286259;28;20301;-64
2022/05/02 16:11:18;;;;;;;3.50;1.50;;;17.60;61.70;;;;;;5253085;28;20195;-65
2022/05/02 16:14:18;;;;;;;2.53;1.60;;;17.60;61.80;;;;;;5286722;28;20191;-65
2022/05/02 16:17:10;;;;;;;1.90;1.60;;;17.60;61.80;;;;;;5286292;28;20766;-65
2022/05/02 16:20:02;;;;;;;1.77;1.60;;;17.60;61.80;;;;;;5286272;28;20203;-65